sensor_id;sensor_type;location;lat;lon;timestamp;temperature;humidity
831;DHT22;397;50.564;7.272;2022-10-12T00:00:05;6.60;99.90
831;DHT22;397;50.564;7.272;2022-10-12T00:02:33;6.50;99.90
831;DHT22;397;50.564;7.272;2022-10-12T00:05:01;6.50;99.90
831;DHT22;397;50.564;7.272;2022-10-12T00:07:28;6.60;99.90
831;DHT22;397;50.564;7.272;2022-10-12T00:09:56;6.60;99.90
831;DHT22;397;50.564;7.272;2022-10-12T00:12:23;6.60;99.90
831;DHT22;397;50.564;7.272;2022-10-12T00:14:51;6.60;99.90
831;DHT22;397;50.564;7.272;2022-10-12T00:17:19;6.60;99.90
831;DHT22;397;50.564;7.272;2022-10-12T00:19:48;6.50;99.90
831;DHT22;397;50.564;7.272;2022-10-12T00:22:15;6.50;99.90
831;DHT22;397;50.564;7.272;2022-10-12T00:24:43;6.50;99.90
831;DHT22;397;50.564;7.272;2022-10-12T00:27:10;6.50;99.90
831;DHT22;397;50.564;7.272;2022-10-12T00:29:38;6.50;99.90
831;DHT22;397;50.564;7.272;2022-10-12T00:32:05;6.60;99.90
831;DHT22;397;50.564;7.272;2022-10-12T00:34:33;6.50;99.90
831;DHT22;397;50.564;7.272;2022-10-12T00:37:00;6.40;99.90
831;DHT22;397;50.564;7.272;2022-10-12T00:39:28;6.40;99.90
831;DHT22;397;50.564;7.272;2022-10-12T00:41:55;6.40;99.90
831;DHT22;397;50.564;7.272;2022-10-12T00:44:43;6.30;99.90
831;DHT22;397;50.564;7.272;2022-10-12T00:47:21;6.30;99.90
831;DHT22;397;50.564;7.272;2022-10-12T00:49:54;6.20;99.90
831;DHT22;397;50.564;7.272;2022-10-12T00:52:20;6.20;99.90
831;DHT22;397;50.564;7.272;2022-10-12T00:54:50;6.30;99.90
831;DHT22;397;50.564;7.272;2022-10-12T00:57:20;6.40;99.90
831;DHT22;397;50.564;7.272;2022-10-12T00:59:51;6.40;99.90
831;DHT22;397;50.564;7.272;2022-10-12T01:02:21;6.50;99.90
831;DHT22;397;50.564;7.272;2022-10-12T01:04:50;6.60;99.90
831;DHT22;397;50.564;7.272;2022-10-12T01:07:18;6.50;99.90
831;DHT22;397;50.564;7.272;2022-10-12T01:09:46;6.60;99.90
831;DHT22;397;50.564;7.272;2022-10-12T01:12:14;6.60;99.90
831;DHT22;397;50.564;7.272;2022-10-12T01:14:42;6.60;99.90
831;DHT22;397;50.564;7.272;2022-10-12T01:20:27;6.50;99.90
831;DHT22;397;50.564;7.272;2022-10-12T01:23:03;6.50;99.90
831;DHT22;397;50.564;7.272;2022-10-12T01:25:40;6.50;99.90
831;DHT22;397;50.564;7.272;2022-10-12T01:28:35;6.60;99.90
831;DHT22;397;50.564;7.272;2022-10-12T01:31:22;6.90;99.90
831;DHT22;397;50.564;7.272;2022-10-12T01:33:42;7.10;99.90
831;DHT22;397;50.564;7.272;2022-10-12T01:36:16;7.10;99.90
831;DHT22;397;50.564;7.272;2022-10-12T01:38:52;7.10;99.90
831;DHT22;397;50.564;7.272;2022-10-12T01:41:19;7.10;99.90
831;DHT22;397;50.564;7.272;2022-10-12T01:43:48;7.10;99.90
831;DHT22;397;50.564;7.272;2022-10-12T01:48:48;7.20;99.90
831;DHT22;397;50.564;7.272;2022-10-12T01:51:21;7.00;99.90
831;DHT22;397;50.564;7.272;2022-10-12T01:57:27;7.00;99.90
831;DHT22;397;50.564;7.272;2022-10-12T01:59:30;7.10;99.90
831;DHT22;397;50.564;7.272;2022-10-12T02:02:05;7.10;99.90
831;DHT22;397;50.564;7.272;2022-10-12T02:07:08;6.60;99.90
831;DHT22;397;50.564;7.272;2022-10-12T02:09:37;6.80;99.90
831;DHT22;397;50.564;7.272;2022-10-12T02:12:14;6.60;99.90
831;DHT22;397;50.564;7.272;2022-10-12T02:14:48;6.80;99.90
831;DHT22;397;50.564;7.272;2022-10-12T02:17:17;6.70;99.90
831;DHT22;397;50.564;7.272;2022-10-12T02:19:51;6.60;99.90
831;DHT22;397;50.564;7.272;2022-10-12T02:22:19;6.80;99.90
831;DHT22;397;50.564;7.272;2022-10-12T02:24:48;6.90;99.90
831;DHT22;397;50.564;7.272;2022-10-12T02:27:18;7.00;99.90
831;DHT22;397;50.564;7.272;2022-10-12T02:29:47;7.00;99.90
831;DHT22;397;50.564;7.272;2022-10-12T02:32:25;7.00;99.90
831;DHT22;397;50.564;7.272;2022-10-12T02:35:10;7.10;99.90
831;DHT22;397;50.564;7.272;2022-10-12T02:37:53;6.90;99.90
831;DHT22;397;50.564;7.272;2022-10-12T02:42:59;6.70;99.90
831;DHT22;397;50.564;7.272;2022-10-12T02:45:24;6.70;99.90
831;DHT22;397;50.564;7.272;2022-10-12T02:47:53;6.90;99.90
831;DHT22;397;50.564;7.272;2022-10-12T02:50:23;7.10;99.90
831;DHT22;397;50.564;7.272;2022-10-12T02:52:52;7.00;99.90
831;DHT22;397;50.564;7.272;2022-10-12T02:55:20;6.90;99.90
831;DHT22;397;50.564;7.272;2022-10-12T02:57:48;6.90;99.90
831;DHT22;397;50.564;7.272;2022-10-12T03:00:16;6.60;99.90
831;DHT22;397;50.564;7.272;2022-10-12T03:02:44;6.80;99.90
831;DHT22;397;50.564;7.272;2022-10-12T03:05:11;6.60;99.90
831;DHT22;397;50.564;7.272;2022-10-12T03:07:39;6.50;99.90
831;DHT22;397;50.564;7.272;2022-10-12T03:10:06;6.70;99.90
831;DHT22;397;50.564;7.272;2022-10-12T03:12:34;6.50;99.90
831;DHT22;397;50.564;7.272;2022-10-12T03:15:02;6.70;99.90
831;DHT22;397;50.564;7.272;2022-10-12T03:17:29;6.60;99.90
831;DHT22;397;50.564;7.272;2022-10-12T03:19:57;6.80;99.90
831;DHT22;397;50.564;7.272;2022-10-12T03:22:24;7.00;99.90
831;DHT22;397;50.564;7.272;2022-10-12T03:24:52;6.70;99.90
831;DHT22;397;50.564;7.272;2022-10-12T03:27:19;6.40;99.90
831;DHT22;397;50.564;7.272;2022-10-12T03:29:47;6.40;99.90
831;DHT22;397;50.564;7.272;2022-10-12T03:32:14;6.50;99.90
831;DHT22;397;50.564;7.272;2022-10-12T03:34:42;6.60;99.90
831;DHT22;397;50.564;7.272;2022-10-12T03:37:09;6.40;99.90
831;DHT22;397;50.564;7.272;2022-10-12T03:39:37;6.40;99.90
831;DHT22;397;50.564;7.272;2022-10-12T03:42:05;6.50;99.90
831;DHT22;397;50.564;7.272;2022-10-12T03:44:33;6.50;99.90
831;DHT22;397;50.564;7.272;2022-10-12T03:47:00;6.30;99.90
831;DHT22;397;50.564;7.272;2022-10-12T03:49:27;6.40;99.90
831;DHT22;397;50.564;7.272;2022-10-12T03:51:55;6.60;99.90
831;DHT22;397;50.564;7.272;2022-10-12T03:54:22;6.50;99.90
831;DHT22;397;50.564;7.272;2022-10-12T03:56:50;6.40;99.90
831;DHT22;397;50.564;7.272;2022-10-12T03:59:17;6.10;99.90
831;DHT22;397;50.564;7.272;2022-10-12T04:01:45;6.20;99.90
831;DHT22;397;50.564;7.272;2022-10-12T04:04:12;6.40;99.90
831;DHT22;397;50.564;7.272;2022-10-12T04:06:40;6.30;99.90
831;DHT22;397;50.564;7.272;2022-10-12T04:09:08;6.50;99.90
831;DHT22;397;50.564;7.272;2022-10-12T04:11:35;6.50;99.90
831;DHT22;397;50.564;7.272;2022-10-12T04:14:03;6.40;99.90
831;DHT22;397;50.564;7.272;2022-10-12T04:16:30;6.30;99.90
831;DHT22;397;50.564;7.272;2022-10-12T04:18:58;6.50;99.90
831;DHT22;397;50.564;7.272;2022-10-12T04:21:25;6.50;99.90
831;DHT22;397;50.564;7.272;2022-10-12T04:23:54;6.60;99.90
831;DHT22;397;50.564;7.272;2022-10-12T04:26:22;6.50;99.90
831;DHT22;397;50.564;7.272;2022-10-12T04:28:49;6.60;99.90
831;DHT22;397;50.564;7.272;2022-10-12T04:31:17;6.50;99.90
831;DHT22;397;50.564;7.272;2022-10-12T04:33:45;6.50;99.90
831;DHT22;397;50.564;7.272;2022-10-12T04:36:12;6.40;99.90
831;DHT22;397;50.564;7.272;2022-10-12T04:38:40;6.40;99.90
831;DHT22;397;50.564;7.272;2022-10-12T04:41:07;6.30;99.90
831;DHT22;397;50.564;7.272;2022-10-12T04:43:35;6.30;99.90
831;DHT22;397;50.564;7.272;2022-10-12T04:46:02;6.40;99.90
831;DHT22;397;50.564;7.272;2022-10-12T04:48:30;6.40;99.90
831;DHT22;397;50.564;7.272;2022-10-12T04:50:57;6.20;99.90
831;DHT22;397;50.564;7.272;2022-10-12T04:53:25;6.30;99.90
831;DHT22;397;50.564;7.272;2022-10-12T04:55:52;6.30;99.90
831;DHT22;397;50.564;7.272;2022-10-12T04:58:20;6.30;99.90
831;DHT22;397;50.564;7.272;2022-10-12T05:00:48;6.00;99.90
831;DHT22;397;50.564;7.272;2022-10-12T05:03:16;5.40;99.90
831;DHT22;397;50.564;7.272;2022-10-12T05:05:44;5.10;99.90
831;DHT22;397;50.564;7.272;2022-10-12T05:08:11;5.10;99.90
831;DHT22;397;50.564;7.272;2022-10-12T05:10:39;5.10;99.90
831;DHT22;397;50.564;7.272;2022-10-12T05:13:07;5.10;99.90
831;DHT22;397;50.564;7.272;2022-10-12T05:15:35;5.40;99.90
831;DHT22;397;50.564;7.272;2022-10-12T05:18:02;5.50;99.90
831;DHT22;397;50.564;7.272;2022-10-12T05:20:30;5.70;99.90
831;DHT22;397;50.564;7.272;2022-10-12T05:22:57;5.90;99.90
831;DHT22;397;50.564;7.272;2022-10-12T05:25:25;5.70;99.90
831;DHT22;397;50.564;7.272;2022-10-12T05:27:55;5.80;99.90
831;DHT22;397;50.564;7.272;2022-10-12T05:30:23;6.00;99.90
831;DHT22;397;50.564;7.272;2022-10-12T05:32:51;6.10;99.90
831;DHT22;397;50.564;7.272;2022-10-12T05:35:19;6.10;99.90
831;DHT22;397;50.564;7.272;2022-10-12T05:37:46;6.00;99.90
831;DHT22;397;50.564;7.272;2022-10-12T05:40:14;6.00;99.90
831;DHT22;397;50.564;7.272;2022-10-12T05:42:41;6.20;99.90
831;DHT22;397;50.564;7.272;2022-10-12T05:45:10;6.20;99.90
831;DHT22;397;50.564;7.272;2022-10-12T05:47:38;6.30;99.90
831;DHT22;397;50.564;7.272;2022-10-12T05:50:07;6.30;99.90
831;DHT22;397;50.564;7.272;2022-10-12T05:52:35;6.20;99.90
831;DHT22;397;50.564;7.272;2022-10-12T05:55:02;6.20;99.90
831;DHT22;397;50.564;7.272;2022-10-12T05:57:30;6.30;99.90
831;DHT22;397;50.564;7.272;2022-10-12T05:59:57;6.30;99.90
831;DHT22;397;50.564;7.272;2022-10-12T06:02:25;6.40;99.90
831;DHT22;397;50.564;7.272;2022-10-12T06:04:52;6.30;99.90
831;DHT22;397;50.564;7.272;2022-10-12T06:07:20;6.40;99.90
831;DHT22;397;50.564;7.272;2022-10-12T06:09:47;6.30;99.90
831;DHT22;397;50.564;7.272;2022-10-12T06:12:15;6.10;99.90
831;DHT22;397;50.564;7.272;2022-10-12T06:14:42;5.80;99.90
831;DHT22;397;50.564;7.272;2022-10-12T06:17:10;6.00;99.90
831;DHT22;397;50.564;7.272;2022-10-12T06:19:38;5.40;99.90
831;DHT22;397;50.564;7.272;2022-10-12T06:22:06;5.40;99.90
831;DHT22;397;50.564;7.272;2022-10-12T06:24:33;5.50;99.90
831;DHT22;397;50.564;7.272;2022-10-12T06:27:01;5.60;99.90
831;DHT22;397;50.564;7.272;2022-10-12T06:29:28;5.80;99.90
831;DHT22;397;50.564;7.272;2022-10-12T06:31:56;6.00;99.90
831;DHT22;397;50.564;7.272;2022-10-12T06:34:24;6.30;99.90
831;DHT22;397;50.564;7.272;2022-10-12T06:36:51;6.70;99.90
831;DHT22;397;50.564;7.272;2022-10-12T06:39:19;7.10;99.90
831;DHT22;397;50.564;7.272;2022-10-12T06:41:47;7.40;99.90
831;DHT22;397;50.564;7.272;2022-10-12T06:44:14;7.80;99.90
831;DHT22;397;50.564;7.272;2022-10-12T06:46:42;7.80;99.90
831;DHT22;397;50.564;7.272;2022-10-12T06:49:09;7.90;99.90
831;DHT22;397;50.564;7.272;2022-10-12T06:51:37;7.70;99.90
831;DHT22;397;50.564;7.272;2022-10-12T06:54:04;7.70;99.90
831;DHT22;397;50.564;7.272;2022-10-12T06:56:32;7.90;99.90
831;DHT22;397;50.564;7.272;2022-10-12T06:59:00;7.80;99.90
831;DHT22;397;50.564;7.272;2022-10-12T07:01:27;8.00;99.90
831;DHT22;397;50.564;7.272;2022-10-12T07:03:55;7.90;99.90
831;DHT22;397;50.564;7.272;2022-10-12T07:06:22;7.80;99.90
831;DHT22;397;50.564;7.272;2022-10-12T07:08:52;8.00;99.90
831;DHT22;397;50.564;7.272;2022-10-12T07:11:20;8.30;99.90
831;DHT22;397;50.564;7.272;2022-10-12T07:13:47;7.80;99.90
831;DHT22;397;50.564;7.272;2022-10-12T07:16:15;8.00;99.90
831;DHT22;397;50.564;7.272;2022-10-12T07:18:43;8.10;99.90
831;DHT22;397;50.564;7.272;2022-10-12T07:21:10;8.20;99.90
831;DHT22;397;50.564;7.272;2022-10-12T07:23:38;8.30;99.90
831;DHT22;397;50.564;7.272;2022-10-12T07:26:05;8.50;99.90
831;DHT22;397;50.564;7.272;2022-10-12T07:28:34;8.50;99.90
831;DHT22;397;50.564;7.272;2022-10-12T07:31:04;8.50;99.90
831;DHT22;397;50.564;7.272;2022-10-12T07:33:33;8.30;99.90
831;DHT22;397;50.564;7.272;2022-10-12T07:36:01;8.60;99.90
831;DHT22;397;50.564;7.272;2022-10-12T07:38:29;8.80;99.90
831;DHT22;397;50.564;7.272;2022-10-12T07:41:00;8.90;99.90
831;DHT22;397;50.564;7.272;2022-10-12T07:43:29;9.20;99.90
831;DHT22;397;50.564;7.272;2022-10-12T07:45:57;9.10;99.90
831;DHT22;397;50.564;7.272;2022-10-12T07:48:24;9.10;99.90
831;DHT22;397;50.564;7.272;2022-10-12T07:50:52;8.70;99.90
831;DHT22;397;50.564;7.272;2022-10-12T07:53:20;8.60;99.90
831;DHT22;397;50.564;7.272;2022-10-12T07:55:47;8.90;99.90
831;DHT22;397;50.564;7.272;2022-10-12T07:58:15;8.90;99.90
831;DHT22;397;50.564;7.272;2022-10-12T08:00:43;8.90;99.90
831;DHT22;397;50.564;7.272;2022-10-12T08:03:10;9.20;99.90
831;DHT22;397;50.564;7.272;2022-10-12T08:05:38;9.30;99.90
831;DHT22;397;50.564;7.272;2022-10-12T08:08:06;9.40;99.90
831;DHT22;397;50.564;7.272;2022-10-12T08:10:35;9.20;99.90
831;DHT22;397;50.564;7.272;2022-10-12T08:13:03;9.20;99.90
831;DHT22;397;50.564;7.272;2022-10-12T08:15:30;9.00;99.90
831;DHT22;397;50.564;7.272;2022-10-12T08:17:58;9.10;99.90
831;DHT22;397;50.564;7.272;2022-10-12T08:20:25;9.10;99.90
831;DHT22;397;50.564;7.272;2022-10-12T08:22:53;9.50;99.90
831;DHT22;397;50.564;7.272;2022-10-12T08:25:20;9.70;99.90
831;DHT22;397;50.564;7.272;2022-10-12T08:27:48;9.50;99.90
831;DHT22;397;50.564;7.272;2022-10-12T08:30:16;9.20;99.90
831;DHT22;397;50.564;7.272;2022-10-12T08:32:43;9.30;99.90
831;DHT22;397;50.564;7.272;2022-10-12T08:35:10;9.30;99.90
831;DHT22;397;50.564;7.272;2022-10-12T08:37:38;8.80;99.90
831;DHT22;397;50.564;7.272;2022-10-12T08:40:06;8.70;99.90
831;DHT22;397;50.564;7.272;2022-10-12T08:45:35;9.20;99.90
831;DHT22;397;50.564;7.272;2022-10-12T08:50:53;9.60;99.90
831;DHT22;397;50.564;7.272;2022-10-12T08:53:24;9.80;99.90
831;DHT22;397;50.564;7.272;2022-10-12T08:55:52;9.90;99.90
831;DHT22;397;50.564;7.272;2022-10-12T08:58:28;10.10;99.90
831;DHT22;397;50.564;7.272;2022-10-12T09:01:02;10.30;99.90
831;DHT22;397;50.564;7.272;2022-10-12T09:06:16;10.70;99.90
831;DHT22;397;50.564;7.272;2022-10-12T09:09:02;10.80;99.90
831;DHT22;397;50.564;7.272;2022-10-12T09:11:43;10.70;99.90
831;DHT22;397;50.564;7.272;2022-10-12T09:14:14;10.80;99.90
831;DHT22;397;50.564;7.272;2022-10-12T09:16:44;10.70;99.90
831;DHT22;397;50.564;7.272;2022-10-12T09:19:21;10.80;99.90
831;DHT22;397;50.564;7.272;2022-10-12T09:21:49;11.20;99.90
831;DHT22;397;50.564;7.272;2022-10-12T09:24:19;11.30;99.90
831;DHT22;397;50.564;7.272;2022-10-12T09:26:49;11.30;99.90
831;DHT22;397;50.564;7.272;2022-10-12T09:29:25;11.40;99.90
831;DHT22;397;50.564;7.272;2022-10-12T09:34:33;11.50;99.90
831;DHT22;397;50.564;7.272;2022-10-12T09:37:02;11.50;99.90
831;DHT22;397;50.564;7.272;2022-10-12T09:39:35;11.50;99.90
831;DHT22;397;50.564;7.272;2022-10-12T09:42:03;11.60;99.90
831;DHT22;397;50.564;7.272;2022-10-12T09:44:35;11.50;99.90
831;DHT22;397;50.564;7.272;2022-10-12T09:47:21;11.60;99.90
831;DHT22;397;50.564;7.272;2022-10-12T09:49:43;11.60;99.90
831;DHT22;397;50.564;7.272;2022-10-12T09:52:13;11.40;99.90
831;DHT22;397;50.564;7.272;2022-10-12T09:54:46;11.60;99.90
831;DHT22;397;50.564;7.272;2022-10-12T09:59:54;11.60;99.90
831;DHT22;397;50.564;7.272;2022-10-12T10:02:24;11.90;99.90
831;DHT22;397;50.564;7.272;2022-10-12T10:04:53;12.00;99.90
831;DHT22;397;50.564;7.272;2022-10-12T10:07:30;12.10;99.90
831;DHT22;397;50.564;7.272;2022-10-12T10:12:55;11.80;99.90
831;DHT22;397;50.564;7.272;2022-10-12T10:15:33;11.90;99.90
831;DHT22;397;50.564;7.272;2022-10-12T10:18:07;12.10;99.90
831;DHT22;397;50.564;7.272;2022-10-12T10:20:39;11.90;99.90
831;DHT22;397;50.564;7.272;2022-10-12T10:23:20;12.00;99.90
831;DHT22;397;50.564;7.272;2022-10-12T10:25:38;12.00;99.90
831;DHT22;397;50.564;7.272;2022-10-12T10:28:21;12.20;99.90
831;DHT22;397;50.564;7.272;2022-10-12T10:30:39;12.00;99.90
831;DHT22;397;50.564;7.272;2022-10-12T10:33:17;12.00;99.90
831;DHT22;397;50.564;7.272;2022-10-12T10:35:50;12.20;99.90
831;DHT22;397;50.564;7.272;2022-10-12T10:38:12;12.30;99.90
831;DHT22;397;50.564;7.272;2022-10-12T10:40:48;12.30;99.90
831;DHT22;397;50.564;7.272;2022-10-12T10:43:23;12.20;99.90
831;DHT22;397;50.564;7.272;2022-10-12T10:45:51;12.30;99.90
831;DHT22;397;50.564;7.272;2022-10-12T10:48:26;12.40;99.90
831;DHT22;397;50.564;7.272;2022-10-12T10:50:58;12.50;99.90
831;DHT22;397;50.564;7.272;2022-10-12T10:53:41;12.50;99.90
831;DHT22;397;50.564;7.272;2022-10-12T10:56:10;12.50;99.90
831;DHT22;397;50.564;7.272;2022-10-12T11:01:37;12.60;99.90
831;DHT22;397;50.564;7.272;2022-10-12T11:04:13;12.80;99.90
831;DHT22;397;50.564;7.272;2022-10-12T11:06:49;12.70;99.90
831;DHT22;397;50.564;7.272;2022-10-12T11:09:19;12.70;99.90
831;DHT22;397;50.564;7.272;2022-10-12T11:12:36;12.90;99.90
831;DHT22;397;50.564;7.272;2022-10-12T11:14:20;13.00;99.90
831;DHT22;397;50.564;7.272;2022-10-12T11:17:03;13.20;99.90
831;DHT22;397;50.564;7.272;2022-10-12T11:22:11;13.50;99.90
831;DHT22;397;50.564;7.272;2022-10-12T11:24:42;13.60;99.90
831;DHT22;397;50.564;7.272;2022-10-12T11:27:14;13.80;99.90
831;DHT22;397;50.564;7.272;2022-10-12T11:29:43;13.90;99.90
831;DHT22;397;50.564;7.272;2022-10-12T11:32:28;14.10;99.90
831;DHT22;397;50.564;7.272;2022-10-12T11:35:01;14.20;99.90
831;DHT22;397;50.564;7.272;2022-10-12T11:40:41;14.30;99.90
831;DHT22;397;50.564;7.272;2022-10-12T11:43:07;14.20;99.90
831;DHT22;397;50.564;7.272;2022-10-12T11:45:38;14.20;99.90
831;DHT22;397;50.564;7.272;2022-10-12T11:48:13;14.40;99.90
831;DHT22;397;50.564;7.272;2022-10-12T11:50:47;14.50;99.90
831;DHT22;397;50.564;7.272;2022-10-12T11:58:24;14.70;99.90
831;DHT22;397;50.564;7.272;2022-10-12T12:11:33;14.80;99.90
831;DHT22;397;50.564;7.272;2022-10-12T12:19:46;15.00;99.90
831;DHT22;397;50.564;7.272;2022-10-12T12:22:17;15.10;99.90
831;DHT22;397;50.564;7.272;2022-10-12T12:25:01;15.20;99.90
831;DHT22;397;50.564;7.272;2022-10-12T12:27:40;15.30;99.90
831;DHT22;397;50.564;7.272;2022-10-12T12:35:58;15.70;99.90
831;DHT22;397;50.564;7.272;2022-10-12T12:38:28;15.70;99.90
831;DHT22;397;50.564;7.272;2022-10-12T12:41:08;15.80;99.90
831;DHT22;397;50.564;7.272;2022-10-12T12:43:59;15.80;99.90
831;DHT22;397;50.564;7.272;2022-10-12T12:46:08;15.80;99.90
831;DHT22;397;50.564;7.272;2022-10-12T12:51:19;15.80;99.90
831;DHT22;397;50.564;7.272;2022-10-12T12:54:03;15.90;99.90
831;DHT22;397;50.564;7.272;2022-10-12T12:56:39;15.80;99.90
831;DHT22;397;50.564;7.272;2022-10-12T12:59:27;15.80;99.90
831;DHT22;397;50.564;7.272;2022-10-12T13:02:22;15.80;99.90
831;DHT22;397;50.564;7.272;2022-10-12T13:05:09;15.80;99.90
831;DHT22;397;50.564;7.272;2022-10-12T13:15:46;15.80;99.90
831;DHT22;397;50.564;7.272;2022-10-12T13:18:34;15.80;99.90
831;DHT22;397;50.564;7.272;2022-10-12T13:20:57;15.80;99.90
831;DHT22;397;50.564;7.272;2022-10-12T13:23:26;15.70;99.90
831;DHT22;397;50.564;7.272;2022-10-12T13:25:58;15.70;99.90
831;DHT22;397;50.564;7.272;2022-10-12T13:28:27;15.80;99.90
831;DHT22;397;50.564;7.272;2022-10-12T13:31:03;15.80;99.90
831;DHT22;397;50.564;7.272;2022-10-12T13:36:29;15.90;99.90
831;DHT22;397;50.564;7.272;2022-10-12T13:39:12;16.00;99.90
831;DHT22;397;50.564;7.272;2022-10-12T13:41:36;16.10;99.90
831;DHT22;397;50.564;7.272;2022-10-12T13:44:05;16.00;99.90
831;DHT22;397;50.564;7.272;2022-10-12T13:46:51;16.10;99.90
831;DHT22;397;50.564;7.272;2022-10-12T13:49:23;16.20;99.90
831;DHT22;397;50.564;7.272;2022-10-12T13:51:53;16.30;99.90
831;DHT22;397;50.564;7.272;2022-10-12T13:54:39;16.30;99.90
831;DHT22;397;50.564;7.272;2022-10-12T13:57:31;16.30;99.90
831;DHT22;397;50.564;7.272;2022-10-12T14:00:18;16.30;99.90
831;DHT22;397;50.564;7.272;2022-10-12T14:02:32;16.30;99.90
831;DHT22;397;50.564;7.272;2022-10-12T14:05:02;16.30;99.90
831;DHT22;397;50.564;7.272;2022-10-12T14:07:39;16.30;99.90
831;DHT22;397;50.564;7.272;2022-10-12T14:12:56;16.20;99.90
831;DHT22;397;50.564;7.272;2022-10-12T14:15:26;16.20;99.90
831;DHT22;397;50.564;7.272;2022-10-12T14:17:54;16.20;99.90
831;DHT22;397;50.564;7.272;2022-10-12T14:20:33;16.10;99.90
831;DHT22;397;50.564;7.272;2022-10-12T14:23:09;16.00;99.90
831;DHT22;397;50.564;7.272;2022-10-12T14:25:33;16.00;99.90
831;DHT22;397;50.564;7.272;2022-10-12T14:28:17;15.90;99.90
831;DHT22;397;50.564;7.272;2022-10-12T14:30:40;16.00;99.90
831;DHT22;397;50.564;7.272;2022-10-12T14:33:19;16.00;99.90
831;DHT22;397;50.564;7.272;2022-10-12T14:35:41;16.10;99.90
831;DHT22;397;50.564;7.272;2022-10-12T14:38:37;16.00;99.90
831;DHT22;397;50.564;7.272;2022-10-12T14:41:30;16.00;99.90
831;DHT22;397;50.564;7.272;2022-10-12T14:46:43;16.00;99.90
831;DHT22;397;50.564;7.272;2022-10-12T14:49:23;16.00;99.90
831;DHT22;397;50.564;7.272;2022-10-12T14:51:48;16.00;99.90
831;DHT22;397;50.564;7.272;2022-10-12T14:54:16;16.00;99.90
831;DHT22;397;50.564;7.272;2022-10-12T14:56:44;16.10;99.90
831;DHT22;397;50.564;7.272;2022-10-12T14:59:11;16.00;99.90
831;DHT22;397;50.564;7.272;2022-10-12T15:01:39;16.00;99.90
831;DHT22;397;50.564;7.272;2022-10-12T15:04:07;16.00;99.90
831;DHT22;397;50.564;7.272;2022-10-12T15:06:35;16.00;99.90
831;DHT22;397;50.564;7.272;2022-10-12T15:09:02;15.90;99.90
831;DHT22;397;50.564;7.272;2022-10-12T15:11:30;16.00;99.90
831;DHT22;397;50.564;7.272;2022-10-12T15:13:57;15.90;99.90
831;DHT22;397;50.564;7.272;2022-10-12T15:16:27;15.80;99.90
831;DHT22;397;50.564;7.272;2022-10-12T15:18:55;15.80;99.90
831;DHT22;397;50.564;7.272;2022-10-12T15:21:22;15.70;99.90
831;DHT22;397;50.564;7.272;2022-10-12T15:23:50;15.70;99.90
831;DHT22;397;50.564;7.272;2022-10-12T15:26:18;15.70;99.90
831;DHT22;397;50.564;7.272;2022-10-12T15:28:46;15.70;99.90
831;DHT22;397;50.564;7.272;2022-10-12T15:31:15;15.70;99.90
831;DHT22;397;50.564;7.272;2022-10-12T15:33:43;15.70;99.90
831;DHT22;397;50.564;7.272;2022-10-12T15:36:10;15.60;99.90
831;DHT22;397;50.564;7.272;2022-10-12T15:38:38;15.60;99.90
831;DHT22;397;50.564;7.272;2022-10-12T15:41:15;15.60;99.90
831;DHT22;397;50.564;7.272;2022-10-12T15:43:42;15.50;99.90
831;DHT22;397;50.564;7.272;2022-10-12T15:46:11;15.50;99.90
831;DHT22;397;50.564;7.272;2022-10-12T15:48:39;15.40;99.90
831;DHT22;397;50.564;7.272;2022-10-12T15:51:16;15.40;99.90
831;DHT22;397;50.564;7.272;2022-10-12T15:53:40;15.30;99.90
831;DHT22;397;50.564;7.272;2022-10-12T15:56:12;15.30;99.90
831;DHT22;397;50.564;7.272;2022-10-12T15:58:39;15.20;99.90
831;DHT22;397;50.564;7.272;2022-10-12T16:01:17;15.10;99.90
831;DHT22;397;50.564;7.272;2022-10-12T16:03:41;15.00;99.90
831;DHT22;397;50.564;7.272;2022-10-12T16:06:08;14.90;99.90
831;DHT22;397;50.564;7.272;2022-10-12T16:08:36;14.90;99.90
831;DHT22;397;50.564;7.272;2022-10-12T16:11:06;14.80;99.90
831;DHT22;397;50.564;7.272;2022-10-12T16:13:35;14.80;99.90
831;DHT22;397;50.564;7.272;2022-10-12T16:16:04;14.70;99.90
831;DHT22;397;50.564;7.272;2022-10-12T16:18:31;14.60;99.90
831;DHT22;397;50.564;7.272;2022-10-12T16:20:59;14.60;99.90
831;DHT22;397;50.564;7.272;2022-10-12T16:23:29;14.50;99.90
831;DHT22;397;50.564;7.272;2022-10-12T16:25:57;14.40;99.90
831;DHT22;397;50.564;7.272;2022-10-12T16:28:25;14.40;99.90
831;DHT22;397;50.564;7.272;2022-10-12T16:30:53;14.30;99.90
831;DHT22;397;50.564;7.272;2022-10-12T16:33:20;14.30;99.90
831;DHT22;397;50.564;7.272;2022-10-12T16:35:48;14.20;99.90
831;DHT22;397;50.564;7.272;2022-10-12T16:38:15;14.10;99.90
831;DHT22;397;50.564;7.272;2022-10-12T16:40:45;14.10;99.90
831;DHT22;397;50.564;7.272;2022-10-12T16:43:14;14.00;99.90
831;DHT22;397;50.564;7.272;2022-10-12T16:45:41;13.90;99.90
831;DHT22;397;50.564;7.272;2022-10-12T16:48:09;13.90;99.90
831;DHT22;397;50.564;7.272;2022-10-12T16:50:37;13.90;99.90
831;DHT22;397;50.564;7.272;2022-10-12T16:53:06;14.00;99.90
831;DHT22;397;50.564;7.272;2022-10-12T16:55:36;13.90;99.90
831;DHT22;397;50.564;7.272;2022-10-12T16:58:04;13.90;99.90
831;DHT22;397;50.564;7.272;2022-10-12T17:00:31;13.90;99.90
831;DHT22;397;50.564;7.272;2022-10-12T17:02:59;13.80;99.90
831;DHT22;397;50.564;7.272;2022-10-12T17:05:26;13.70;99.90
831;DHT22;397;50.564;7.272;2022-10-12T17:07:54;13.70;99.90
831;DHT22;397;50.564;7.272;2022-10-12T17:10:21;13.70;99.90
831;DHT22;397;50.564;7.272;2022-10-12T17:12:49;13.70;99.90
831;DHT22;397;50.564;7.272;2022-10-12T17:15:16;13.60;99.90
831;DHT22;397;50.564;7.272;2022-10-12T17:17:44;13.60;99.90
831;DHT22;397;50.564;7.272;2022-10-12T17:20:11;13.60;99.90
831;DHT22;397;50.564;7.272;2022-10-12T17:22:39;13.50;99.90
831;DHT22;397;50.564;7.272;2022-10-12T17:25:07;13.50;99.90
831;DHT22;397;50.564;7.272;2022-10-12T17:27:34;13.50;99.90
831;DHT22;397;50.564;7.272;2022-10-12T17:30:02;13.40;99.90
831;DHT22;397;50.564;7.272;2022-10-12T17:32:30;13.30;99.90
831;DHT22;397;50.564;7.272;2022-10-12T17:34:59;13.20;99.90
831;DHT22;397;50.564;7.272;2022-10-12T17:37:27;13.20;99.90
831;DHT22;397;50.564;7.272;2022-10-12T17:39:54;13.10;99.90
831;DHT22;397;50.564;7.272;2022-10-12T17:42:22;13.00;99.90
831;DHT22;397;50.564;7.272;2022-10-12T17:44:50;13.00;99.90
831;DHT22;397;50.564;7.272;2022-10-12T17:47:17;12.90;99.90
831;DHT22;397;50.564;7.272;2022-10-12T17:49:45;12.90;99.90
831;DHT22;397;50.564;7.272;2022-10-12T17:52:12;12.90;99.90
831;DHT22;397;50.564;7.272;2022-10-12T17:54:40;12.80;99.90
831;DHT22;397;50.564;7.272;2022-10-12T17:57:07;12.80;99.90
831;DHT22;397;50.564;7.272;2022-10-12T17:59:35;12.80;99.90
831;DHT22;397;50.564;7.272;2022-10-12T18:02:02;12.90;99.90
831;DHT22;397;50.564;7.272;2022-10-12T18:04:30;12.90;99.90
831;DHT22;397;50.564;7.272;2022-10-12T18:06:57;12.90;99.90
831;DHT22;397;50.564;7.272;2022-10-12T18:09:25;12.70;99.90
831;DHT22;397;50.564;7.272;2022-10-12T18:11:52;12.60;99.90
831;DHT22;397;50.564;7.272;2022-10-12T18:14:20;12.40;99.90
831;DHT22;397;50.564;7.272;2022-10-12T18:16:47;12.50;99.90
831;DHT22;397;50.564;7.272;2022-10-12T18:19:15;12.50;99.90
831;DHT22;397;50.564;7.272;2022-10-12T18:21:43;12.50;99.90
831;DHT22;397;50.564;7.272;2022-10-12T18:24:11;12.50;99.90
831;DHT22;397;50.564;7.272;2022-10-12T18:26:41;12.50;99.90